KCID

The Eastern Iowa Airport

Airport
ICAO code
KCID
IATA Code
CID
Summary
ICAO Region
NAM
ICAO Territory
Location

Cedar Rapids, Iowa,

Serving
Cedar Rapids
Elevation
869 ft
Coordinates
41° 53' 7" N , 91° 42' 50" W
KCC
Airport CFIT
Altimeter Temperature Error Correction
Metar
KCID 231152Z 12005KT 5SM BR BKN090 BKN100 17/16 A2999 RMK AO2 SLP150 T01720161 10200 20172 50001

Description

The Eastern Iowa Airport is a commercial airport in Cedar Rapids, Iowa,.

Climatology

Humid continental climate (Köppen climate classification Dfa) - characterized by four seasons: cold, windy, snowy winters, mild springs, hot, humid summers, and crisp and relatively short autumns. Precipitation reaches its lowest in January and February and peaks in summer and latter half of spring.

Airport map

Aerial View

SKYbrary Partners:

Safety knowledge contributed by: